Time,TemperatureF,DewpointF,PressureIn,WindDirection,WindDirectionDegrees,WindSpeedMPH,WindSpeedGustMPH,Humidity,HourlyPrecipIn,Conditions,Clouds,dailyrainin,SoftwareType,DateUTC
2013-04-24 00:02:00,66.0,46.0,29.98,WSW,240,0.0,-999.0,49,-99.99,,,0.00,weatherlink.com 1.10,2013-04-24 04:02:00,
2013-04-24 00:17:00,65.8,46.0,29.99,SSW,213,2.0,-999.0,50,-99.99,,,0.00,weatherlink.com 1.10,2013-04-24 04:17:00,
2013-04-24 00:32:00,65.7,47.0,29.98,SSW,194,3.0,-999.0,51,-99.99,,,0.00,weatherlink.com 1.10,2013-04-24 04:32:00,
2013-04-24 00:47:00,65.9,48.0,29.98,SW,234,1.0,-999.0,52,-99.99,,,0.00,weatherlink.com 1.10,2013-04-24 04:47:00,
2013-04-24 01:02:00,66.0,48.0,29.98,SW,222,5.0,-999.0,52,-99.99,,,0.00,weatherlink.com 1.10,2013-04-24 05:02:00,
2013-04-24 01:17:00,65.9,48.0,29.98,WSW,238,3.0,-999.0,53,-99.99,,,0.00,weatherlink.com 1.10,2013-04-24 05:17:00,
2013-04-24 01:32:00,65.9,48.0,29.97,SW,227,0.0,-999.0,53,-99.99,,,0.00,weatherlink.com 1.10,2013-04-24 05:32:00,
2013-04-24 01:47:00,65.9,49.0,29.97,SSW,206,5.0,-999.0,54,-99.99,,,0.00,weatherlink.com 1.10,2013-04-24 05:47:00,
2013-04-24 02:02:00,66.1,49.0,29.96,SW,222,1.0,-999.0,54,-99.99,,,0.00,weatherlink.com 1.10,2013-04-24 06:02:00,
2013-04-24 02:17:00,66.1,49.0,29.95,SSW,213,1.0,-999.0,54,-99.99,,,0.00,weatherlink.com 1.10,2013-04-24 06:17:00,
2013-04-24 02:32:00,66.0,49.0,29.94,SSW,195,4.0,-999.0,55,-99.99,,,0.00,weatherlink.com 1.10,2013-04-24 06:32:00,
2013-04-24 02:47:00,65.8,49.0,29.93,South,188,8.0,-999.0,55,-99.99,,,0.00,weatherlink.com 1.10,2013-04-24 06:47:00,
2013-04-24 03:02:00,65.7,49.0,29.93,SSW,213,5.0,-999.0,56,-99.99,,,0.00,weatherlink.com 1.10,2013-04-24 07:02:00,
2013-04-24 03:17:00,65.7,49.0,29.92,WSW,249,4.0,-999.0,55,-99.99,,,0.00,weatherlink.com 1.10,2013-04-24 07:17:00,
2013-04-24 03:32:00,65.7,49.0,29.92,SW,232,10.0,-999.0,56,-99.99,,,0.00,weatherlink.com 1.10,2013-04-24 07:32:00,
2013-04-24 03:47:00,66.0,49.0,29.91,SSW,192,14.0,-999.0,55,-99.99,,,0.00,weatherlink.com 1.10,2013-04-24 07:47:00,
2013-04-24 04:02:00,65.8,49.0,29.91,South,175,8.0,-999.0,56,-99.99,,,0.00,weatherlink.com 1.10,2013-04-24 08:02:00,
2013-04-24 04:17:00,65.7,49.0,29.91,West,268,8.0,-999.0,56,-99.99,,,0.00,weatherlink.com 1.10,2013-04-24 08:17:00,
2013-04-24 04:32:00,65.4,49.0,29.91,WSW,240,9.0,-999.0,56,-99.99,,,0.00,weatherlink.com 1.10,2013-04-24 08:32:00,
2013-04-24 04:47:00,65.1,49.0,29.92,SSW,193,14.0,-999.0,57,-99.99,,,0.00,weatherlink.com 1.10,2013-04-24 08:47:00,
2013-04-24 05:02:00,65.4,50.0,29.91,SW,231,2.0,-999.0,57,-99.99,,,0.00,weatherlink.com 1.10,2013-04-24 09:02:00,
2013-04-24 05:17:00,65.5,50.0,29.91,SW,232,0.0,-999.0,57,-99.99,,,0.00,weatherlink.com 1.10,2013-04-24 09:17:00,
2013-04-24 05:32:00,65.3,49.0,29.91,SSE,160,6.0,-999.0,57,-99.99,,,0.00,weatherlink.com 1.10,2013-04-24 09:32:00,
2013-04-24 05:47:00,65.3,50.0,29.91,South,188,0.0,-999.0,58,-99.99,,,0.00,weatherlink.com 1.10,2013-04-24 09:47:00,
2013-04-24 06:02:00,65.6,50.0,29.89,South,182,9.0,-999.0,57,-99.99,,,0.00,weatherlink.com 1.10,2013-04-24 10:02:00,
2013-04-24 06:21:00,66.0,50.0,29.89,SSW,213,5.0,-999.0,57,-99.99,,,0.00,weatherlink.com 1.10,2013-04-24 10:21:00,
2013-04-24 06:32:00,66.2,50.0,29.89,South,188,6.0,-999.0,57,-99.99,,,0.00,weatherlink.com 1.10,2013-04-24 10:32:00,
2013-04-24 06:47:00,66.1,50.0,29.89,SW,216,3.0,-999.0,57,-99.99,,,0.00,weatherlink.com 1.10,2013-04-24 10:47:00,
2013-04-24 07:02:00,65.6,50.0,29.88,SW,236,0.0,-999.0,58,-99.99,,,0.00,weatherlink.com 1.10,2013-04-24 11:02:00,
2013-04-24 07:17:00,65.3,50.0,29.88,SW,233,2.0,-999.0,59,-99.99,,,0.00,weatherlink.com 1.10,2013-04-24 11:17:00,
2013-04-24 07:32:00,65.0,51.0,29.89,SSW,206,2.0,-999.0,60,-99.99,,,0.00,weatherlink.com 1.10,2013-04-24 11:32:00,
2013-04-24 07:48:00,65.1,51.0,29.89,South,191,10.0,-999.0,60,-99.99,,,0.00,weatherlink.com 1.10,2013-04-24 11:48:00,
2013-04-24 08:03:00,65.0,51.0,29.89,SW,224,5.0,-999.0,60,-99.99,,,0.00,weatherlink.com 1.10,2013-04-24 12:03:00,
2013-04-24 08:18:00,64.8,50.0,29.89,SSW,207,1.0,-999.0,60,-99.99,,,0.00,weatherlink.com 1.10,2013-04-24 12:18:00,
2013-04-24 08:33:00,64.8,51.0,29.89,SSW,202,8.0,-999.0,61,-99.99,,,0.00,weatherlink.com 1.10,2013-04-24 12:33:00,
2013-04-24 08:48:00,64.9,51.0,29.86,SSW,211,4.0,-999.0,62,-99.99,,,0.00,weatherlink.com 1.10,2013-04-24 12:48:00,
2013-04-24 09:03:00,65.1,51.0,29.86,South,189,3.0,-999.0,61,-99.99,,,0.00,weatherlink.com 1.10,2013-04-24 13:03:00,
2013-04-24 09:18:00,65.2,52.0,29.88,South,187,5.0,-999.0,62,-99.99,,,0.00,weatherlink.com 1.10,2013-04-24 13:18:00,
2013-04-24 09:33:00,65.2,52.0,29.86,SW,225,4.0,-999.0,62,-99.99,,,0.00,weatherlink.com 1.10,2013-04-24 13:33:00,
2013-04-24 09:48:00,65.7,52.0,29.85,SSW,207,9.0,-999.0,62,-99.99,,,0.00,weatherlink.com 1.10,2013-04-24 13:48:00,
2013-04-24 10:03:00,66.1,53.0,29.85,SW,216,15.0,-999.0,63,-99.99,,,0.00,weatherlink.com 1.10,2013-04-24 14:03:00,
2013-04-24 10:18:00,66.3,53.0,29.84,SSW,201,5.0,-999.0,62,-99.99,,,0.00,weatherlink.com 1.10,2013-04-24 14:18:00,
2013-04-24 10:33:00,66.6,53.0,29.85,SW,215,6.0,-999.0,63,-99.99,,,0.00,weatherlink.com 1.10,2013-04-24 14:33:00,
2013-04-24 10:48:00,66.8,54.0,29.86,SW,214,5.0,-999.0,64,-99.99,,,0.00,weatherlink.com 1.10,2013-04-24 14:48:00,
2013-04-24 11:03:00,67.2,54.0,29.86,SSW,209,7.0,-999.0,63,-99.99,,,0.00,weatherlink.com 1.10,2013-04-24 15:03:00,
2013-04-24 11:18:00,67.8,55.0,29.88,WSW,254,14.0,-999.0,63,-99.99,,,0.00,weatherlink.com 1.10,2013-04-24 15:18:00,
2013-04-24 11:33:00,67.6,55.0,29.89,WNW,294,3.0,-999.0,65,-99.99,,,0.00,weatherlink.com 1.10,2013-04-24 15:33:00,
2013-04-24 11:48:00,64.2,57.0,29.92,West,259,7.0,-999.0,78,-99.99,,,0.07,weatherlink.com 1.10,2013-04-24 15:48:00,
2013-04-24 12:03:00,62.0,58.0,29.93,West,269,9.0,-999.0,85,-99.99,,,0.09,weatherlink.com 1.10,2013-04-24 16:03:00,
2013-04-24 12:18:00,61.4,58.0,29.94,WNW,296,9.0,-999.0,88,-99.99,,,0.13,weatherlink.com 1.10,2013-04-24 16:18:00,
2013-04-24 12:33:00,60.9,58.0,29.95,WNW,287,6.0,-999.0,89,-99.99,,,0.15,weatherlink.com 1.10,2013-04-24 16:33:00,
2013-04-24 12:48:00,59.9,56.0,29.94,West,272,3.0,-999.0,88,-99.99,,,0.18,weatherlink.com 1.10,2013-04-24 16:48:00,
2013-04-24 13:03:00,60.2,57.0,29.93,SSW,196,6.0,-999.0,89,-99.99,,,0.21,weatherlink.com 1.10,2013-04-24 17:03:00,
2013-04-24 13:18:00,60.9,57.0,29.91,SSE,150,1.0,-999.0,88,-99.99,,,0.23,weatherlink.com 1.10,2013-04-24 17:18:00,
2013-04-24 13:33:00,60.9,57.0,29.93,WSW,237,6.0,-999.0,88,-99.99,,,0.23,weatherlink.com 1.10,2013-04-24 17:33:00,
2013-04-24 13:48:00,56.4,52.0,29.97,WNW,296,11.0,-999.0,85,-99.99,,,0.24,weatherlink.com 1.10,2013-04-24 17:48:00,
2013-04-24 14:03:00,54.5,51.0,29.99,WNW,286,12.0,-999.0,88,-99.99,,,0.24,weatherlink.com 1.10,2013-04-24 18:03:00,
2013-04-24 14:18:00,51.8,48.0,30.01,WNW,295,18.0,-999.0,87,-99.99,,,0.24,weatherlink.com 1.10,2013-04-24 18:18:00,
2013-04-24 14:34:00,51.3,48.0,30.01,WNW,284,6.0,-999.0,87,-99.99,,,0.24,weatherlink.com 1.10,2013-04-24 18:34:00,
2013-04-24 14:49:00,51.4,47.0,30.03,West,278,9.0,-999.0,85,-99.99,,,0.24,weatherlink.com 1.10,2013-04-24 18:49:00,
2013-04-24 15:04:00,50.5,47.0,30.03,WNW,290,11.0,-999.0,86,-99.99,,,0.24,weatherlink.com 1.10,2013-04-24 19:04:00,
2013-04-24 15:19:00,50.2,47.0,30.04,West,272,8.0,-999.0,87,-99.99,,,0.24,weatherlink.com 1.10,2013-04-24 19:19:00,
2013-04-24 15:34:00,50.1,46.0,30.05,WNW,301,5.0,-999.0,87,-99.99,,,0.24,weatherlink.com 1.10,2013-04-24 19:34:00,
2013-04-24 15:49:00,49.7,46.0,30.07,WSW,246,12.0,-999.0,87,-99.99,,,0.24,weatherlink.com 1.10,2013-04-24 19:49:00,
2013-04-24 16:04:00,48.8,45.0,30.08,West,271,16.0,-999.0,87,-99.99,,,0.24,weatherlink.com 1.10,2013-04-24 20:04:00,
2013-04-24 16:19:00,48.9,45.0,30.09,West,280,11.0,-999.0,86,-99.99,,,0.24,weatherlink.com 1.10,2013-04-24 20:19:00,
2013-04-24 16:34:00,48.3,44.0,30.10,NW,312,6.0,-999.0,85,-99.99,,,0.24,weatherlink.com 1.10,2013-04-24 20:34:00,
2013-04-24 16:49:00,47.7,44.0,30.11,NNW,327,10.0,-999.0,86,-99.99,,,0.24,weatherlink.com 1.10,2013-04-24 20:49:00,
2013-04-24 17:04:00,47.2,44.0,30.12,NW,306,15.0,-999.0,87,-99.99,,,0.24,weatherlink.com 1.10,2013-04-24 21:04:00,
2013-04-24 17:19:00,47.2,43.0,30.13,WNW,303,10.0,-999.0,86,-99.99,,,0.24,weatherlink.com 1.10,2013-04-24 21:19:00,
2013-04-24 17:34:00,46.5,43.0,30.14,NW,310,8.0,-999.0,86,-99.99,,,0.24,weatherlink.com 1.10,2013-04-24 21:34:00,
2013-04-24 17:49:00,46.1,43.0,30.15,WNW,296,8.0,-999.0,87,-99.99,,,0.24,weatherlink.com 1.10,2013-04-24 21:49:00,
2013-04-24 18:04:00,45.8,42.0,30.16,NW,306,6.0,-999.0,86,-99.99,,,0.24,weatherlink.com 1.10,2013-04-24 22:04:00,
2013-04-24 18:19:00,46.5,42.0,30.16,NW,316,3.0,-999.0,84,-99.99,,,0.24,weatherlink.com 1.10,2013-04-24 22:19:00,
2013-04-24 18:34:00,47.0,41.0,30.17,NW,315,5.0,-999.0,80,-99.99,,,0.24,weatherlink.com 1.10,2013-04-24 22:34:00,
2013-04-24 18:49:00,47.2,41.0,30.18,NW,324,2.0,-999.0,79,-99.99,,,0.24,weatherlink.com 1.10,2013-04-24 22:49:00,
2013-04-24 19:04:00,47.2,41.0,30.19,NW,305,2.0,-999.0,79,-99.99,,,0.24,weatherlink.com 1.10,2013-04-24 23:04:00,
2013-04-24 19:19:00,47.1,41.0,30.19,WNW,294,6.0,-999.0,79,-99.99,,,0.24,weatherlink.com 1.10,2013-04-24 23:19:00,
2013-04-24 19:34:00,47.0,41.0,30.20,WNW,288,1.0,-999.0,80,-99.99,,,0.24,weatherlink.com 1.10,2013-04-24 23:34:00,
2013-04-24 19:49:00,46.9,41.0,30.20,WNW,288,4.0,-999.0,80,-99.99,,,0.24,weatherlink.com 1.10,2013-04-24 23:49:00,
2013-04-24 20:04:00,46.9,41.0,30.21,WNW,288,3.0,-999.0,80,-99.99,,,0.24,weatherlink.com 1.10,2013-04-25 00:04:00,
2013-04-24 20:20:00,46.9,41.0,30.21,WNW,296,0.0,-999.0,80,-99.99,,,0.24,weatherlink.com 1.10,2013-04-25 00:20:00,
2013-04-24 20:35:00,46.8,41.0,30.22,WNW,296,2.0,-999.0,81,-99.99,,,0.24,weatherlink.com 1.10,2013-04-25 00:35:00,
2013-04-24 20:50:00,46.7,41.0,30.23,WNW,296,3.0,-999.0,80,-99.99,,,0.24,weatherlink.com 1.10,2013-04-25 00:50:00,
2013-04-24 21:05:00,46.7,41.0,30.24,WNW,296,3.0,-999.0,80,-99.99,,,0.24,weatherlink.com 1.10,2013-04-25 01:05:00,
2013-04-24 21:20:00,46.7,41.0,30.25,WNW,296,0.0,-999.0,81,-99.99,,,0.24,weatherlink.com 1.10,2013-04-25 01:20:00,
2013-04-24 21:35:00,46.7,41.0,30.24,WNW,296,4.0,-999.0,81,-99.99,,,0.24,weatherlink.com 1.10,2013-04-25 01:35:00,
2013-04-24 21:50:00,46.6,41.0,30.25,WNW,296,3.0,-999.0,81,-99.99,,,0.24,weatherlink.com 1.10,2013-04-25 01:50:00,
2013-04-24 22:05:00,46.5,41.0,30.26,WNW,296,3.0,-999.0,80,-99.99,,,0.24,weatherlink.com 1.10,2013-04-25 02:05:00,
2013-04-24 22:20:00,46.5,41.0,30.27,WNW,296,5.0,-999.0,81,-99.99,,,0.24,weatherlink.com 1.10,2013-04-25 02:20:00,
2013-04-24 22:35:00,46.4,41.0,30.27,WNW,296,0.0,-999.0,81,-99.99,,,0.24,weatherlink.com 1.10,2013-04-25 02:35:00,
2013-04-24 22:50:00,46.3,41.0,30.27,WNW,296,1.0,-999.0,81,-99.99,,,0.24,weatherlink.com 1.10,2013-04-25 02:50:00,
2013-04-24 23:05:00,46.2,41.0,30.27,WNW,296,0.0,-999.0,82,-99.99,,,0.24,weatherlink.com 1.10,2013-04-25 03:05:00,
2013-04-24 23:20:00,46.1,41.0,30.27,WNW,296,0.0,-999.0,82,-99.99,,,0.24,weatherlink.com 1.10,2013-04-25 03:20:00,
2013-04-24 23:35:00,46.0,41.0,30.28,WNW,296,0.0,-999.0,82,-99.99,,,0.24,weatherlink.com 1.10,2013-04-25 03:35:00,
2013-04-24 23:50:00,46.0,41.0,30.28,WNW,296,2.0,-999.0,82,-99.99,,,0.24,weatherlink.com 1.10,2013-04-25 03:50:00,